Terminal Aerodrome Forecast
Issued by NWS

Home | Current Version | Previous Version | Text Only | Print | Product List | Glossary On
Versions: 1 2 3 4 5 6 7 8 9 10 11 12 13 14 15 16 17 18 19 20 21 22
000
FTUS45 KBOU 212114 AAA
TAFBJC
TAF AMD
KBJC 212114Z 2121/2218 05005KT P6SM SCT090 BKN180
     FM212200 28009KT P6SM SCT070 BKN120
      TEMPO 2123/2203 -SHRA SCT060 BKN080
     FM220300 30007KT P6SM VCSH SCT070 BKN150
     FM221100 31006KT P6SM SCT080 SCT150=

USA.gov is the U.S. government's official web portal to all federal, state and local government web resources and services.